Terminal Aerodrome Forecast
Issued by NWS

Home | Current Version | Previous Version | Text Only | Print | Product List | Glossary On
Versions: 1 2 3 4 5 6 7 8 9 10 11 12 13 14 15 16 17 18 19 20 21 22 23 24 25
000
FTUS41 KILN 282335
TAFLUK
TAF
KLUK 282335Z 2900/2924 28009KT P6SM SCT080
     FM290400 30003KT 4SM BR BKN025
     FM290800 VRB02KT 1SM BR BKN005
     FM291400 32006KT 3SM BR BKN015
     FM291700 29008KT P6SM BKN035=

USA.gov is the U.S. government's official web portal to all federal, state and local government web resources and services.